Time;durP1;ratioP1;P1;durP2;ratioP2;P2;SDS_P1;SDS_P2;PMS_P1;PMS_P2;Temp;Humidity;BMP_temperature;BMP_pressure;BME280_temperature;BME280_humidity;BME280_pressure;Samples;Min_cycle;Max_cycle;Signal;HPM_P1;HPM_P2
2021/10/24 00:01:50;;;;;;;8.50;7.70;;;7.00;99.90;;;;;;4985458;28;20702;-66
2021/10/24 00:04:15;;;;;;;7.50;6.80;;;7.00;99.90;;;;;;4980071;28;20527;-67
2021/10/24 00:06:42;;;;;;;9.63;7.10;;;7.00;99.90;;;;;;4995482;28;20675;-66
2021/10/24 00:09:10;;;;;;;8.23;7.40;;;7.00;99.90;;;;;;4990753;28;21137;-66
2021/10/24 00:11:36;;;;;;;8.47;7.10;;;7.00;99.90;;;;;;4978285;28;20214;-67
2021/10/24 00:14:07;;;;;;;8.10;7.10;;;7.00;99.90;;;;;;4995011;28;20636;-67
2021/10/24 00:16:43;;;;;;;9.50;7.70;;;6.90;99.90;;;;;;4994142;28;20650;-66
2021/10/24 00:19:11;;;;;;;8.93;6.63;;;6.90;99.90;;;;;;4993554;28;20703;-67
2021/10/24 00:21:36;;;;;;;8.93;7.87;;;6.90;99.90;;;;;;4993036;28;20793;-67
2021/10/24 00:24:02;;;;;;;7.73;7.00;;;6.90;99.90;;;;;;4979763;28;20726;-67
2021/10/24 00:26:28;;;;;;;8.47;7.67;;;6.90;99.90;;;;;;4997931;28;20217;-67
2021/10/24 00:29:04;;;;;;;8.20;7.00;;;6.90;99.90;;;;;;4998502;28;21122;-66
2021/10/24 00:31:33;;;;;;;9.50;7.47;;;6.90;99.90;;;;;;4981541;28;20236;-67
2021/10/24 00:33:59;;;;;;;7.93;6.47;;;6.90;99.90;;;;;;4998253;28;20636;-67
2021/10/24 00:36:29;;;;;;;7.93;6.57;;;6.90;99.90;;;;;;4997955;28;20718;-67
2021/10/24 00:38:58;;;;;;;7.70;6.90;;;6.80;99.90;;;;;;4999418;28;20620;-67
2021/10/24 00:41:31;;;;;;;12.00;6.83;;;6.80;99.90;;;;;;4998955;28;20706;-67
2021/10/24 00:43:56;;;;;;;7.67;6.77;;;6.90;99.90;;;;;;4983171;28;20813;-67
2021/10/24 00:46:22;;;;;;;9.37;6.57;;;6.90;99.90;;;;;;4981628;28;20755;-67
2021/10/24 00:48:51;;;;;;;8.47;6.60;;;6.90;99.90;;;;;;4998747;28;20577;-67
2021/10/24 00:51:17;;;;;;;8.33;6.47;;;6.90;99.90;;;;;;5000387;28;21187;-67
2021/10/24 00:53:43;;;;;;;7.40;6.40;;;6.90;99.90;;;;;;4995932;28;20648;-66
2021/10/24 00:56:09;;;;;;;9.10;6.00;;;6.90;99.90;;;;;;4998435;28;20625;-67
2021/10/24 00:58:35;;;;;;;8.17;5.73;;;7.00;99.90;;;;;;4980145;28;20289;-66
2021/10/24 01:01:01;;;;;;;8.73;6.27;;;7.00;99.90;;;;;;4995806;28;20743;-67
2021/10/24 01:03:27;;;;;;;7.37;6.30;;;7.00;99.90;;;;;;4997560;28;21063;-66
2021/10/24 01:05:59;;;;;;;7.70;5.80;;;7.00;99.90;;;;;;4999955;28;20747;-66
2021/10/24 01:08:27;;;;;;;7.57;6.30;;;7.10;99.90;;;;;;4998058;28;20691;-67
2021/10/24 01:10:54;;;;;;;7.27;6.20;;;7.10;99.90;;;;;;4979985;28;20706;-67
2021/10/24 01:13:19;;;;;;;7.73;5.60;;;7.00;99.90;;;;;;4997614;28;20639;-67
2021/10/24 01:15:46;;;;;;;8.30;5.53;;;7.00;99.90;;;;;;4980197;28;20631;-67
2021/10/24 01:18:27;;;;;;;6.83;5.53;;;7.00;99.90;;;;;;4998872;28;20643;-67
2021/10/24 01:21:10;;;;;;;7.27;5.70;;;7.00;99.90;;;;;;5000149;28;21249;-67
2021/10/24 01:23:39;;;;;;;8.00;5.70;;;7.10;99.90;;;;;;4998612;28;21152;-67
2021/10/24 01:26:10;;;;;;;9.17;6.03;;;7.10;99.90;;;;;;4997621;28;20726;-66
2021/10/24 01:28:38;;;;;;;5.60;4.93;;;7.10;99.90;;;;;;4996816;28;20580;-66
2021/10/24 01:31:14;;;;;;;7.50;4.97;;;7.00;99.90;;;;;;4996597;28;21035;-66
2021/10/24 01:33:39;;;;;;;6.10;4.97;;;7.10;99.90;;;;;;4997220;28;20715;-66
2021/10/24 01:36:08;;;;;;;8.80;5.67;;;7.20;99.90;;;;;;5001117;28;20662;-67
2021/10/24 01:38:37;;;;;;;8.40;5.47;;;7.20;99.90;;;;;;5000727;28;20256;-66
2021/10/24 01:41:07;;;;;;;7.03;4.80;;;7.20;99.90;;;;;;4977225;28;21265;-66
2021/10/24 01:43:37;;;;;;;6.30;4.80;;;7.20;99.90;;;;;;4978703;28;20663;-66
2021/10/24 01:46:04;;;;;;;5.93;5.33;;;7.20;99.90;;;;;;4995293;28;20645;-66
2021/10/24 01:48:33;;;;;;;7.20;5.07;;;7.20;99.90;;;;;;4981620;28;20774;-66
2021/10/24 01:50:59;;;;;;;11.63;6.33;;;7.30;99.90;;;;;;4987572;28;20640;-66
2021/10/24 01:53:31;;;;;;;5.70;5.00;;;7.30;99.90;;;;;;4985101;28;20640;-66
2021/10/24 01:56:00;;;;;;;7.83;5.33;;;7.30;99.90;;;;;;5001329;28;20190;-66
2021/10/24 01:58:26;;;;;;;6.60;4.77;;;7.30;99.90;;;;;;4996325;28;21166;-67
2021/10/24 02:00:53;;;;;;;8.83;4.90;;;7.30;99.90;;;;;;4997026;28;20644;-67
2021/10/24 02:03:21;;;;;;;7.17;5.27;;;7.30;99.90;;;;;;4982254;28;20647;-67
2021/10/24 02:05:55;;;;;;;7.73;5.83;;;7.30;99.90;;;;;;5000260;28;20699;-67
2021/10/24 02:08:21;;;;;;;8.77;5.30;;;7.30;99.90;;;;;;4999808;28;20592;-67
2021/10/24 02:10:47;;;;;;;7.27;5.33;;;7.30;99.90;;;;;;4995294;28;20656;-67
2021/10/24 02:13:15;;;;;;;5.53;5.00;;;7.30;99.90;;;;;;4997962;28;20739;-67
2021/10/24 02:15:41;;;;;;;5.67;5.07;;;7.30;99.90;;;;;;4997912;28;20625;-67
2021/10/24 02:18:08;;;;;;;7.70;4.97;;;7.30;99.90;;;;;;4998165;28;20796;-67
2021/10/24 02:20:35;;;;;;;6.40;4.70;;;7.30;99.90;;;;;;4996080;28;20620;-67
2021/10/24 02:23:02;;;;;;;6.47;4.90;;;7.40;99.90;;;;;;4997006;28;20756;-67
2021/10/24 02:25:30;;;;;;;6.37;4.70;;;7.30;99.90;;;;;;4999175;28;20967;-67
2021/10/24 02:27:59;;;;;;;7.93;5.20;;;7.40;99.90;;;;;;4998014;28;21439;-67
2021/10/24 02:30:25;;;;;;;8.17;5.17;;;7.40;99.90;;;;;;4993973;28;20620;-67
2021/10/24 02:32:53;;;;;;;6.40;4.93;;;7.40;99.90;;;;;;4987565;28;20699;-67
2021/10/24 02:35:25;;;;;;;5.70;5.13;;;7.40;99.90;;;;;;4996320;28;20506;-67
2021/10/24 02:38:00;;;;;;;5.90;5.03;;;7.50;99.90;;;;;;4994515;28;20615;-67
2021/10/24 02:40:25;;;;;;;8.33;5.40;;;7.40;99.90;;;;;;4997339;28;21242;-67
2021/10/24 02:42:55;;;;;;;6.10;5.13;;;7.50;99.90;;;;;;4983663;28;20728;-67
2021/10/24 02:45:21;;;;;;;6.23;4.77;;;7.50;99.90;;;;;;4987181;28;20693;-67
2021/10/24 02:47:50;;;;;;;7.30;4.93;;;7.50;99.90;;;;;;4998788;28;20648;-67
2021/10/24 02:50:17;;;;;;;10.93;5.17;;;7.50;99.90;;;;;;4998087;28;20229;-67
2021/10/24 02:52:43;;;;;;;6.90;5.13;;;7.50;99.90;;;;;;4997875;28;20758;-67
2021/10/24 02:55:11;;;;;;;6.97;5.13;;;7.40;99.90;;;;;;4996451;28;21183;-67
2021/10/24 02:57:36;;;;;;;6.33;5.40;;;7.50;99.90;;;;;;4994784;28;20683;-67
2021/10/24 03:00:07;;;;;;;8.27;5.10;;;7.50;99.90;;;;;;5008193;28;21199;-67
2021/10/24 03:02:33;;;;;;;6.73;5.23;;;7.50;99.90;;;;;;4994881;28;20290;-67
2021/10/24 03:04:59;;;;;;;8.07;5.00;;;7.50;99.90;;;;;;4984269;28;20652;-67
2021/10/24 03:07:27;;;;;;;8.43;4.80;;;7.50;99.90;;;;;;4994765;28;20663;-67
2021/10/24 03:09:58;;;;;;;7.00;5.03;;;7.50;99.90;;;;;;4996209;28;20197;-67
2021/10/24 03:12:26;;;;;;;6.23;5.63;;;7.50;99.90;;;;;;4995693;28;20690;-67
2021/10/24 03:14:54;;;;;;;5.73;4.80;;;7.50;99.90;;;;;;4996403;28;20612;-67
2021/10/24 03:17:25;;;;;;;5.63;4.87;;;7.50;99.90;;;;;;4978168;28;20717;-67
2021/10/24 03:19:53;;;;;;;5.37;4.30;;;7.50;99.90;;;;;;4994673;28;20662;-67
2021/10/24 03:22:21;;;;;;;7.53;4.57;;;7.50;99.90;;;;;;4994464;28;20759;-67
2021/10/24 03:24:47;;;;;;;5.67;4.60;;;7.50;99.90;;;;;;4996455;28;20663;-67
2021/10/24 03:27:15;;;;;;;5.30;4.30;;;7.50;99.90;;;;;;4995767;28;20728;-67
2021/10/24 03:29:43;;;;;;;6.80;4.37;;;7.50;99.90;;;;;;4994919;28;20306;-67
2021/10/24 03:32:12;;;;;;;6.03;4.47;;;7.40;99.90;;;;;;4995817;28;20736;-67
2021/10/24 03:34:45;;;;;;;10.10;4.40;;;7.50;99.90;;;;;;4995918;28;20711;-67
2021/10/24 03:37:10;;;;;;;5.30;4.70;;;7.50;99.90;;;;;;4996806;28;21196;-67
2021/10/24 03:39:36;;;;;;;10.40;4.67;;;7.50;99.90;;;;;;4997736;28;20617;-67
2021/10/24 03:42:05;;;;;;;5.80;4.43;;;7.50;99.90;;;;;;4992538;28;20220;-69
2021/10/24 03:44:30;;;;;;;7.87;4.77;;;7.50;99.90;;;;;;4993947;28;20633;-67
2021/10/24 03:46:56;;;;;;;6.27;4.70;;;7.50;99.90;;;;;;4993575;28;21028;-67
2021/10/24 03:49:24;;;;;;;5.80;4.40;;;7.40;99.90;;;;;;4997247;28;20332;-67
2021/10/24 03:51:50;;;;;;;9.17;4.50;;;7.40;99.90;;;;;;4977982;28;20906;-67
2021/10/24 03:54:15;;;;;;;5.80;4.23;;;7.40;99.90;;;;;;4995586;28;20648;-67
2021/10/24 03:56:41;;;;;;;5.57;4.57;;;7.40;99.90;;;;;;4996238;28;20185;-67
2021/10/24 03:59:07;;;;;;;12.53;4.67;;;7.40;99.90;;;;;;4993909;28;20190;-67
2021/10/24 04:01:35;;;;;;;6.23;4.50;;;7.40;99.90;;;;;;4995787;28;21291;-67
2021/10/24 04:04:06;;;;;;;5.67;4.80;;;7.40;99.90;;;;;;4987096;28;20213;-67
2021/10/24 04:06:32;;;;;;;6.07;4.10;;;7.40;99.90;;;;;;4994889;28;20644;-67
2021/10/24 04:08:57;;;;;;;7.30;4.30;;;7.40;99.90;;;;;;4995273;28;20625;-66
2021/10/24 04:11:23;;;;;;;8.20;5.43;;;7.40;99.90;;;;;;4994109;28;20645;-67
2021/10/24 04:13:56;;;;;;;5.70;4.40;;;7.30;99.90;;;;;;4994133;28;20198;-67
2021/10/24 04:16:24;;;;;;;6.97;4.00;;;7.30;99.90;;;;;;4971194;28;20653;-67
2021/10/24 04:18:49;;;;;;;5.60;4.50;;;7.30;99.90;;;;;;4995200;28;20680;-67
2021/10/24 04:21:18;;;;;;;5.47;4.37;;;7.30;99.90;;;;;;4992709;28;20683;-67
2021/10/24 04:23:46;;;;;;;7.67;3.90;;;7.30;99.90;;;;;;4996487;28;20312;-67
2021/10/24 04:26:11;;;;;;;6.33;4.90;;;7.30;99.90;;;;;;4996935;28;20651;-67
2021/10/24 04:28:37;;;;;;;4.57;4.13;;;7.30;99.90;;;;;;4993549;28;20624;-67
2021/10/24 04:31:05;;;;;;;4.33;3.93;;;7.20;99.90;;;;;;4994072;28;20259;-67
2021/10/24 04:33:30;;;;;;;7.70;4.90;;;7.20;99.90;;;;;;4994871;28;20580;-67
2021/10/24 04:35:56;;;;;;;7.83;4.40;;;7.20;99.90;;;;;;4996762;28;20612;-67
2021/10/24 04:38:25;;;;;;;5.03;4.63;;;7.20;99.90;;;;;;4991930;28;20651;-67
2021/10/24 04:40:56;;;;;;;4.63;4.07;;;7.20;99.90;;;;;;4977340;28;20283;-67
2021/10/24 04:43:29;;;;;;;8.30;4.30;;;7.20;99.90;;;;;;4993089;28;20645;-66
2021/10/24 04:46:00;;;;;;;4.97;4.03;;;7.20;99.90;;;;;;4985676;28;20665;-67
2021/10/24 04:48:25;;;;;;;4.43;4.03;;;7.20;99.90;;;;;;4994965;28;20601;-66
2021/10/24 04:50:51;;;;;;;5.70;4.57;;;7.20;99.90;;;;;;4976881;28;20985;-67
2021/10/24 04:53:20;;;;;;;6.07;4.40;;;7.20;99.90;;;;;;4992808;28;20277;-67
2021/10/24 04:55:46;;;;;;;5.77;4.10;;;7.10;99.90;;;;;;4993620;28;20609;-66
2021/10/24 04:58:14;;;;;;;5.30;4.17;;;7.10;99.90;;;;;;4994612;28;20615;-66
2021/10/24 05:00:42;;;;;;;6.63;4.40;;;7.10;99.90;;;;;;4989706;28;20685;-66
2021/10/24 05:03:07;;;;;;;7.10;4.37;;;7.20;99.90;;;;;;4997647;28;20992;-66
2021/10/24 05:05:33;;;;;;;5.13;4.30;;;7.10;99.90;;;;;;4993200;28;20635;-66
2021/10/24 05:07:59;;;;;;;6.73;5.50;;;7.00;99.90;;;;;;4996543;28;20246;-67
2021/10/24 05:10:27;;;;;;;8.37;4.70;;;7.10;99.90;;;;;;4999596;28;20228;-66
2021/10/24 05:13:00;;;;;;;6.30;4.43;;;7.00;99.90;;;;;;4996869;28;20673;-66
2021/10/24 05:15:26;;;;;;;7.20;4.33;;;7.00;99.90;;;;;;5000345;28;21123;-66
2021/10/24 05:17:54;;;;;;;9.00;5.10;;;7.00;99.90;;;;;;5000769;28;20636;-66
2021/10/24 05:20:22;;;;;;;9.00;5.30;;;7.00;99.90;;;;;;5001198;28;20238;-66
2021/10/24 05:22:56;;;;;;;7.90;4.93;;;7.00;99.90;;;;;;4999697;28;20652;-66
2021/10/24 05:25:24;;;;;;;6.50;4.77;;;6.90;99.90;;;;;;4997959;28;21048;-67
2021/10/24 05:27:54;;;;;;;4.97;4.10;;;6.90;99.90;;;;;;5000494;28;20676;-66
2021/10/24 05:30:21;;;;;;;6.23;4.63;;;6.90;99.90;;;;;;4997509;28;20723;-66
2021/10/24 05:32:50;;;;;;;5.73;4.80;;;6.90;99.90;;;;;;4997501;28;20731;-66
2021/10/24 05:35:18;;;;;;;6.60;5.00;;;6.90;99.90;;;;;;5002843;28;20733;-66
2021/10/24 05:37:44;;;;;;;6.93;5.03;;;6.90;99.90;;;;;;4999698;28;20609;-66
2021/10/24 05:40:14;;;;;;;10.13;5.03;;;6.90;99.90;;;;;;4994914;28;20612;-67
2021/10/24 05:42:40;;;;;;;10.50;5.17;;;6.80;99.90;;;;;;4997634;28;20218;-66
2021/10/24 05:45:06;;;;;;;6.73;4.93;;;6.90;99.90;;;;;;4995939;28;20690;-66
2021/10/24 05:47:32;;;;;;;6.07;4.97;;;6.90;99.90;;;;;;5001473;28;20617;-67
2021/10/24 05:50:00;;;;;;;16.80;4.90;;;6.80;99.90;;;;;;4985959;28;20621;-66
2021/10/24 05:52:32;;;;;;;4.87;4.33;;;6.80;99.90;;;;;;5000189;28;20202;-66
2021/10/24 05:55:08;;;;;;;;;;;;;;;;;;;;;
2021/10/24 05:57:37;;;;;;;6.63;5.50;;;6.80;99.90;;;;;;4998182;28;20706;-66
2021/10/24 06:00:04;;;;;;;5.43;4.80;;;6.80;99.90;;;;;;4998016;28;20643;-66
2021/10/24 06:02:39;;;;;;;10.53;6.00;;;6.80;99.90;;;;;;4997366;28;20722;-67
2021/10/24 06:05:05;;;;;;;7.87;5.60;;;6.80;99.90;;;;;;4996556;28;20654;-66
2021/10/24 06:07:36;;;;;;;7.20;5.47;;;6.80;99.90;;;;;;5002107;28;21177;-67
2021/10/24 06:10:13;;;;;;;7.73;5.17;;;6.80;99.90;;;;;;5000466;28;20975;-67
2021/10/24 06:12:42;;;;;;;5.73;5.17;;;6.80;99.90;;;;;;4997508;28;20636;-66
2021/10/24 06:15:10;;;;;;;7.37;6.13;;;6.70;99.90;;;;;;4992559;28;20621;-66
2021/10/24 06:17:41;;;;;;;5.93;5.37;;;6.70;99.90;;;;;;4998201;28;20625;-67
2021/10/24 06:20:13;;;;;;;6.03;5.17;;;6.60;99.90;;;;;;4979495;28;20626;-66
2021/10/24 06:22:47;;;;;;;7.30;5.73;;;6.60;99.90;;;;;;4994095;28;20647;-66
2021/10/24 06:25:17;;;;;;;6.73;5.30;;;6.70;99.90;;;;;;4978015;28;20845;-66
2021/10/24 06:27:44;;;;;;;9.20;6.10;;;6.50;99.90;;;;;;4978183;28;21200;-66
2021/10/24 06:30:12;;;;;;;8.83;5.57;;;6.50;99.90;;;;;;4978780;28;20613;-66
2021/10/24 06:32:39;;;;;;;8.10;5.63;;;6.60;99.90;;;;;;4997213;28;20672;-66
2021/10/24 06:35:05;;;;;;;7.67;5.60;;;6.50;99.90;;;;;;4999116;28;20615;-66
2021/10/24 06:37:44;;;;;;;8.00;5.60;;;6.50;99.90;;;;;;4982217;28;20613;-66
2021/10/24 06:40:20;;;;;;;9.67;6.13;;;6.50;99.90;;;;;;4979172;28;20636;-66
2021/10/24 06:42:50;;;;;;;8.87;5.40;;;6.50;99.90;;;;;;4997243;28;20645;-66
2021/10/24 06:45:21;;;;;;;6.80;5.40;;;6.50;99.90;;;;;;4980704;28;21196;-66
2021/10/24 06:47:48;;;;;;;7.00;5.47;;;6.50;99.90;;;;;;4997163;28;20641;-66
2021/10/24 06:50:14;;;;;;;5.33;4.80;;;6.50;99.90;;;;;;4993418;28;20644;-67
2021/10/24 06:52:40;;;;;;;6.97;5.00;;;6.50;99.90;;;;;;4997992;28;20655;-67
2021/10/24 06:55:11;;;;;;;8.57;5.50;;;6.60;99.90;;;;;;4998475;28;20563;-66
2021/10/24 06:57:56;;;;;;;8.00;5.50;;;6.50;99.90;;;;;;4984555;28;20989;-66
2021/10/24 07:00:25;;;;;;;8.10;5.10;;;6.50;99.90;;;;;;4977908;28;20671;-65
2021/10/24 07:02:51;;;;;;;8.03;5.90;;;6.60;99.90;;;;;;4973512;28;20656;-65
2021/10/24 07:05:21;;;;;;;8.07;6.10;;;6.50;99.90;;;;;;4993885;28;21126;-66
2021/10/24 07:07:47;;;;;;;6.33;5.43;;;6.50;99.90;;;;;;4993682;28;21199;-67
2021/10/24 07:10:17;;;;;;;7.33;5.67;;;6.60;99.90;;;;;;4987191;28;20640;-66
2021/10/24 07:12:43;;;;;;;9.03;5.77;;;6.60;99.90;;;;;;4991066;28;24116;-67
2021/10/24 07:15:10;;;;;;;6.13;5.50;;;6.60;99.90;;;;;;4991940;28;20608;-66
2021/10/24 07:17:36;;;;;;;7.33;5.53;;;6.60;99.90;;;;;;4978898;28;20648;-67
2021/10/24 07:20:03;;;;;;;7.10;5.80;;;6.60;99.90;;;;;;4990209;28;20996;-67
2021/10/24 07:22:29;;;;;;;6.43;5.70;;;6.60;99.90;;;;;;4997142;28;20941;-67
2021/10/24 07:24:57;;;;;;;9.00;6.00;;;6.70;99.90;;;;;;4993471;28;20624;-69
2021/10/24 07:27:26;;;;;;;8.07;5.63;;;6.60;99.90;;;;;;4993762;28;20224;-67
2021/10/24 07:29:51;;;;;;;10.10;5.90;;;6.70;99.90;;;;;;4989300;28;20630;-65
2021/10/24 07:32:19;;;;;;;7.67;6.20;;;6.70;99.90;;;;;;4991448;28;20978;-66
2021/10/24 07:34:47;;;;;;;7.87;5.90;;;6.70;99.90;;;;;;4987182;28;20296;-66
2021/10/24 07:37:12;;;;;;;7.37;6.23;;;6.70;99.90;;;;;;4990216;28;20728;-67
2021/10/24 07:39:38;;;;;;;7.83;6.27;;;6.80;99.90;;;;;;4975769;28;20624;-67
2021/10/24 07:42:11;;;;;;;10.40;6.90;;;6.70;99.90;;;;;;4988411;28;20221;-66
2021/10/24 07:44:37;;;;;;;9.07;6.17;;;6.80;99.90;;;;;;4973032;28;20494;-67
2021/10/24 07:47:05;;;;;;;8.40;6.50;;;6.90;99.90;;;;;;4992155;28;21337;-67
2021/10/24 07:49:31;;;;;;;7.80;6.37;;;6.90;99.90;;;;;;4999979;28;20729;-67
2021/10/24 07:51:57;;;;;;;7.20;5.87;;;6.90;99.90;;;;;;4984235;28;20731;-67
2021/10/24 07:54:25;;;;;;;7.87;6.03;;;6.90;99.90;;;;;;4971495;28;20198;-67
2021/10/24 07:56:55;;;;;;;9.17;5.80;;;7.00;99.90;;;;;;4994078;28;20653;-67
2021/10/24 07:59:21;;;;;;;7.73;5.87;;;7.00;99.90;;;;;;4985071;28;20763;-67
2021/10/24 08:01:49;;;;;;;6.80;6.10;;;7.00;99.90;;;;;;4989578;28;20737;-67
2021/10/24 08:04:17;;;;;;;6.83;5.50;;;7.10;99.90;;;;;;4991227;28;20222;-67
2021/10/24 08:06:42;;;;;;;8.57;5.77;;;7.10;99.90;;;;;;4993910;28;20648;-67
2021/10/24 08:09:10;;;;;;;9.50;6.20;;;7.10;99.90;;;;;;4990519;28;21252;-66
2021/10/24 08:11:36;;;;;;;8.20;6.03;;;7.10;99.90;;;;;;4972747;28;20221;-66
2021/10/24 08:14:08;;;;;;;7.60;5.70;;;7.20;99.90;;;;;;4988645;28;20629;-66
2021/10/24 08:16:39;;;;;;;7.87;6.53;;;7.20;99.90;;;;;;4993674;28;20600;-69
2021/10/24 08:19:04;;;;;;;6.73;6.00;;;7.20;99.90;;;;;;4991405;28;20629;-66
2021/10/24 08:21:38;;;;;;;7.40;5.83;;;7.20;99.90;;;;;;4996621;28;20634;-66
2021/10/24 08:24:08;;;;;;;10.60;5.93;;;7.30;99.90;;;;;;4996667;28;20225;-66
2021/10/24 08:26:42;;;;;;;9.83;6.10;;;7.40;99.90;;;;;;4996733;28;20737;-66
2021/10/24 08:29:08;;;;;;;8.77;5.90;;;7.40;99.90;;;;;;4997358;28;20699;-66
2021/10/24 08:31:34;;;;;;;7.57;5.23;;;7.40;99.90;;;;;;4975697;28;20642;-66
2021/10/24 08:34:08;;;;;;;6.37;5.73;;;7.50;99.90;;;;;;4992558;28;20293;-66
2021/10/24 08:36:39;;;;;;;8.10;6.00;;;7.50;99.90;;;;;;4994917;28;20656;-66
2021/10/24 08:39:05;;;;;;;6.73;5.53;;;7.60;99.90;;;;;;4992444;28;21435;-66
2021/10/24 08:41:33;;;;;;;6.00;5.50;;;7.60;99.90;;;;;;4987386;28;20669;-66
2021/10/24 08:44:01;;;;;;;8.03;5.73;;;7.70;99.90;;;;;;4990661;28;20221;-66
2021/10/24 08:46:28;;;;;;;6.17;5.57;;;7.70;99.90;;;;;;4993018;28;21176;-66
2021/10/24 08:48:55;;;;;;;11.10;5.80;;;7.70;99.90;;;;;;4988438;28;20624;-66
2021/10/24 08:51:27;;;;;;;10.53;5.53;;;7.80;99.90;;;;;;4981884;28;20707;-66
2021/10/24 08:53:55;;;;;;;11.10;6.47;;;7.80;99.90;;;;;;4987742;28;20658;-66
2021/10/24 08:56:23;;;;;;;7.13;6.10;;;7.80;99.90;;;;;;4986658;28;20643;-66
2021/10/24 08:58:50;;;;;;;12.80;5.60;;;7.80;99.90;;;;;;4982767;28;20712;-66
2021/10/24 09:01:21;;;;;;;12.80;7.77;;;7.90;99.90;;;;;;4978473;28;21027;-66
2021/10/24 09:04:06;;;;;;;6.03;5.43;;;8.00;99.90;;;;;;4999011;28;20659;-66
2021/10/24 09:06:55;;;;;;;8.73;5.87;;;7.90;99.90;;;;;;4991188;28;20664;-66
2021/10/24 09:09:27;;;;;;;7.73;6.00;;;8.00;99.90;;;;;;4994535;28;20647;-66
2021/10/24 09:12:01;;;;;;;7.73;5.53;;;8.10;99.90;;;;;;4994511;28;20734;-67
2021/10/24 09:14:48;;;;;;;6.73;6.03;;;8.10;99.90;;;;;;5000463;28;20597;-68
2021/10/24 09:17:27;;;;;;;9.67;6.87;;;8.30;99.90;;;;;;4992832;28;21268;-68
2021/10/24 09:19:55;;;;;;;6.57;5.23;;;8.30;99.90;;;;;;4996064;28;20584;-67
2021/10/24 09:22:23;;;;;;;10.37;5.77;;;8.40;99.90;;;;;;4997519;28;20644;-67
2021/10/24 09:25:12;;;;;;;8.50;5.77;;;8.50;99.90;;;;;;4983236;28;20731;-67
2021/10/24 09:27:43;;;;;;;9.60;5.70;;;8.50;99.90;;;;;;4985510;28;21080;-66
2021/10/24 09:30:15;;;;;;;6.90;5.47;;;8.60;99.90;;;;;;4993452;28;20688;-67
2021/10/24 09:32:52;;;;;;;7.80;5.47;;;8.70;99.90;;;;;;4974054;28;21224;-69
2021/10/24 09:35:22;;;;;;;7.63;5.93;;;8.80;99.90;;;;;;4993078;28;20671;-67
2021/10/24 09:37:58;;;;;;;10.37;5.33;;;8.90;99.90;;;;;;4993230;28;20671;-67
2021/10/24 09:40:29;;;;;;;6.53;5.30;;;9.00;99.90;;;;;;4991639;28;21107;-66
2021/10/24 09:43:11;;;;;;;6.37;5.37;;;9.00;99.90;;;;;;4994369;28;20635;-67
2021/10/24 09:45:41;;;;;;;5.80;5.30;;;9.10;99.90;;;;;;4992815;28;20746;-66
2021/10/24 09:48:10;;;;;;;6.40;5.53;;;9.20;99.90;;;;;;4998717;28;20732;-68
2021/10/24 09:50:51;;;;;;;6.33;5.20;;;9.20;99.90;;;;;;4996539;28;20694;-68
2021/10/24 09:53:28;;;;;;;6.37;5.57;;;9.40;99.90;;;;;;4996552;28;21701;-68
2021/10/24 09:56:01;;;;;;;8.23;5.60;;;9.50;99.90;;;;;;4988422;28;20620;-67
2021/10/24 09:58:29;;;;;;;9.60;7.00;;;9.50;99.90;;;;;;4987381;28;20721;-66
2021/10/24 10:00:58;;;;;;;9.53;5.90;;;9.60;99.90;;;;;;4988784;28;21125;-66
2021/10/24 10:03:24;;;;;;;7.83;5.63;;;9.60;99.90;;;;;;4994507;28;20641;-66
2021/10/24 10:05:53;;;;;;;6.57;5.37;;;9.70;99.90;;;;;;4997565;28;20628;-66
2021/10/24 10:08:21;;;;;;;7.77;5.50;;;9.80;99.90;;;;;;4992154;28;21050;-64
2021/10/24 10:11:44;;;;;;;6.00;5.13;;;9.90;99.90;;;;;;4993654;28;20758;-64
2021/10/24 10:14:16;;;;;;;5.80;5.07;;;10.10;99.90;;;;;;4919195;29;20668;-64
2021/10/24 10:16:54;;;;;;;6.63;4.77;;;10.20;99.90;;;;;;4919521;29;21094;-64
2021/10/24 10:19:29;;;;;;;6.23;5.47;;;10.30;99.90;;;;;;4912932;29;20642;-66
2021/10/24 10:21:54;;;;;;;7.37;5.30;;;10.30;99.90;;;;;;4917575;29;20642;-67
2021/10/24 10:24:35;;;;;;;7.43;4.97;;;10.50;99.90;;;;;;4918497;29;20731;-66
2021/10/24 10:27:27;;;;;;;8.07;5.70;;;10.50;99.90;;;;;;4917667;29;20303;-64
2021/10/24 10:30:06;;;;;;;9.40;5.23;;;10.70;99.90;;;;;;4918687;29;20970;-64
2021/10/24 10:32:45;;;;;;;8.57;4.87;;;10.70;99.90;;;;;;4919104;29;20794;-67
2021/10/24 10:35:18;;;;;;;6.37;4.83;;;10.80;99.90;;;;;;4895887;29;21333;-66
2021/10/24 10:37:47;;;;;;;5.40;4.20;;;11.00;99.90;;;;;;4915162;29;20647;-66
2021/10/24 10:40:39;;;;;;;8.57;5.13;;;11.10;99.90;;;;;;4917996;29;20857;-66
2021/10/24 10:43:12;;;;;;;6.30;5.10;;;11.30;99.90;;;;;;4919847;29;21342;-66
2021/10/24 10:45:46;;;;;;;9.13;6.17;;;11.40;99.90;;;;;;4978536;28;20680;-65
2021/10/24 10:48:38;;;;;;;5.70;4.87;;;11.50;99.90;;;;;;4997198;28;21126;-68
2021/10/24 10:51:24;;;;;;;4.83;4.33;;;11.60;99.90;;;;;;4994952;28;20644;-66
2021/10/24 10:54:01;;;;;;;7.30;4.57;;;11.70;99.90;;;;;;4997861;28;20652;-66
2021/10/24 10:56:31;;;;;;;5.73;4.20;;;11.80;99.90;;;;;;4996901;28;20600;-66
2021/10/24 10:59:02;;;;;;;5.00;3.97;;;11.90;99.90;;;;;;4991686;28;20684;-66
2021/10/24 11:01:32;;;;;;;6.60;4.50;;;12.00;99.90;;;;;;4992223;28;20652;-67
2021/10/24 11:03:58;;;;;;;5.70;3.70;;;12.00;99.90;;;;;;4994699;28;20648;-66
2021/10/24 11:06:27;;;;;;;5.13;3.87;;;12.20;99.90;;;;;;4983638;28;20693;-66
2021/10/24 11:08:56;;;;;;;7.43;4.40;;;12.30;99.90;;;;;;4994569;28;20608;-66
2021/10/24 11:11:40;;;;;;;4.07;3.63;;;12.40;99.90;;;;;;4995883;28;20647;-66
2021/10/24 11:14:15;;;;;;;5.47;4.40;;;12.50;99.90;;;;;;4981426;28;21230;-67
2021/10/24 11:16:55;;;;;;;8.13;3.97;;;12.60;99.90;;;;;;4981780;28;20625;-67
2021/10/24 11:19:29;;;;;;;5.63;4.17;;;12.70;99.90;;;;;;4996101;28;20617;-66
2021/10/24 11:22:01;;;;;;;5.43;4.50;;;12.90;99.90;;;;;;4994487;28;20632;-67
2021/10/24 11:24:37;;;;;;;4.10;3.43;;;13.10;99.90;;;;;;4989359;28;21023;-65
2021/10/24 11:27:04;;;;;;;7.90;3.90;;;13.20;99.90;;;;;;4980249;28;21065;-64
2021/10/24 11:29:32;;;;;;;5.00;4.50;;;13.30;99.90;;;;;;4993498;28;20703;-65
2021/10/24 11:32:25;;;;;;;6.80;3.80;;;13.70;99.90;;;;;;4996070;28;20659;-62
2021/10/24 11:34:55;;;;;;;6.23;5.50;;;14.40;99.90;;;;;;4995033;28;20635;-62
2021/10/24 11:37:45;;;;;;;6.40;5.73;;;15.30;99.90;;;;;;4993791;28;20633;-63
2021/10/24 11:40:38;;;;;;;6.00;5.50;;;18.20;99.90;;;;;;4995799;28;20684;-63
2021/10/24 11:43:19;;;;;;;10.37;9.27;;;21.50;99.90;;;;;;4994260;28;20645;-64
2021/10/24 11:46:00;;;;;;;7.40;4.60;;;25.20;99.90;;;;;;4996614;28;20882;-63
2021/10/24 11:48:32;;;;;;;6.50;5.90;;;27.00;91.10;;;;;;4980019;28;21359;-63
2021/10/24 11:51:09;;;;;;;3.10;2.80;;;28.80;74.80;;;;;;4997069;28;20643;-63
2021/10/24 11:53:43;;;;;;;3.70;3.00;;;30.60;70.40;;;;;;4992428;28;20809;-64
2021/10/24 11:56:15;;;;;;;4.33;3.93;;;32.40;63.90;;;;;;4998526;28;20628;-63
2021/10/24 12:01:28;;;;;;;4.27;3.97;;;34.90;54.60;;;;;;4986256;28;22124;-64
2021/10/24 12:04:04;;;;;;;3.40;2.80;;;35.40;47.40;;;;;;4991557;28;20739;-64
2021/10/24 12:07:09;;;;;;;4.33;3.20;;;36.60;48.10;;;;;;4996138;28;20656;-64
2021/10/24 12:09:42;;;;;;;3.57;3.37;;;37.40;46.40;;;;;;4941263;28;20635;-65
2021/10/24 12:12:33;;;;;;;7.23;6.63;;;37.70;44.00;;;;;;4943486;28;20635;-64
2021/10/24 12:15:13;;;;;;;2.93;2.70;;;38.10;43.00;;;;;;4938309;28;20736;-64
2021/10/24 12:17:40;;;;;;;2.97;2.67;;;38.60;41.40;;;;;;4939284;28;20607;-64
2021/10/24 12:20:11;;;;;;;4.47;4.07;;;38.90;41.20;;;;;;4935070;28;20621;-65
2021/10/24 12:22:40;;;;;;;3.70;3.13;;;38.30;38.40;;;;;;4938560;28;20699;-66
2021/10/24 12:25:12;;;;;;;3.23;2.70;;;37.80;40.30;;;;;;4939653;28;20670;-66
2021/10/24 12:27:41;;;;;;;4.07;2.53;;;37.50;40.70;;;;;;4940816;28;20662;-64
2021/10/24 12:30:09;;;;;;;2.73;2.50;;;37.00;40.20;;;;;;4940308;28;20615;-66
2021/10/24 12:33:04;;;;;;;3.70;2.40;;;36.90;39.30;;;;;;4936002;28;20655;-66
2021/10/24 12:35:41;;;;;;;3.00;1.90;;;36.50;39.70;;;;;;4929744;28;21132;-66
2021/10/24 12:38:07;;;;;;;3.37;2.57;;;36.10;40.50;;;;;;4932932;28;20627;-68
2021/10/24 12:40:33;;;;;;;3.03;2.60;;;35.10;40.60;;;;;;4964044;28;20645;-67
2021/10/24 12:43:13;;;;;;;3.90;2.33;;;33.80;41.20;;;;;;4992106;28;20212;-66
2021/10/24 12:45:44;;;;;;;3.23;2.43;;;32.30;42.40;;;;;;4987684;28;20704;-66
2021/10/24 12:48:10;;;;;;;2.97;2.30;;;30.50;44.80;;;;;;4991054;28;21267;-65
2021/10/24 12:50:37;;;;;;;4.50;2.50;;;28.60;44.70;;;;;;4976965;28;21235;-65
2021/10/24 12:53:09;;;;;;;3.30;2.63;;;27.40;47.20;;;;;;4991470;28;20708;-65
2021/10/24 12:55:36;;;;;;;4.80;2.60;;;26.40;50.70;;;;;;4979143;28;20628;-64
2021/10/24 12:58:02;;;;;;;3.20;2.30;;;25.50;51.30;;;;;;4991933;28;20747;-65
2021/10/24 13:00:29;;;;;;;3.53;3.10;;;24.70;51.30;;;;;;4992516;28;21072;-66
2021/10/24 13:02:55;;;;;;;2.97;2.50;;;24.00;53.30;;;;;;4987495;28;20717;-65
2021/10/24 13:05:22;;;;;;;3.10;2.43;;;23.10;52.70;;;;;;4988894;28;20596;-64
2021/10/24 13:07:48;;;;;;;5.60;3.00;;;22.90;53.70;;;;;;4992157;28;20621;-66
2021/10/24 13:10:14;;;;;;;3.70;2.80;;;22.50;54.00;;;;;;4985679;28;20640;-64
2021/10/24 13:12:39;;;;;;;4.90;2.47;;;22.50;56.70;;;;;;4993188;28;21496;-64
2021/10/24 13:15:06;;;;;;;5.83;2.60;;;22.20;56.40;;;;;;4977630;28;20557;-65